Ana Sayfa
METAR-TAF:

METAR-TAF

Havaalanları :

Platinum, Alaska, Amerika Birleşik Devletleri

Enlem: 59-01N, Boylam: 161-49W, yükseklik: 3 m

Güncel hava durumu gözlemi

Rapor saat 10:56 UTC de 34 dakika önce yapıldı.
Rüzgar batı/güneybatıdan 16 kt
Sıcaklık -2°C
Nem 86%
Basınç 1001 hPa
Görüş mesafesi: 12.9 km
1600 ft yükseklikte çok bulutlu

METAR: PAPM 121056Z AUTO 25016KT 8SM OVC016 M02/M04 A2956 RMK AO2 UPB16E20B49E51SNB01E16B20E49 SLP011 P0000 T10221039 FZRANO

Saat: 03:30 (11:30 UTC)


TAF: eksik

4.000'den fazla havaalanı için hava durumu gözlemleri ve tahminleri (METAR ve TAF raporları).

Kullanılabilir istasyonlar harita üzerinde sarı ve kırmızı noktalarla gösterilir.

İstasyonun adını görmek için fareyi noktanın üzerinde gezdirin.

Sonrasında hava gözlem ve tahminlerini görmek için tıklayın.

Haritayı değiştirmek için: yaklaştırmak için siyah artı işaretli yeşil düğmeye ve uzaklaştırmak için de eksi işaretli düğmeye hızla tıklayın; bitişik haritalar için yeşil okları kullanın.


METAR-TAF: